Time;durP1;ratioP1;P1;durP2;ratioP2;P2;SDS_P1;SDS_P2;PMS_P1;PMS_P2;Temp;Humidity;BMP_temperature;BMP_pressure;BME280_temperature;BME280_humidity;BME280_pressure;Samples;Min_cycle;Max_cycle;Signal;HPM_P1;HPM_P2
2022/06/29 00:02:20;;;;;;;3.20;2.28;;;15.40;99.90;;;;;;5029666;28;20489;-33
2022/06/29 00:04:46;;;;;;;3.17;2.17;;;15.40;99.90;;;;;;5031522;28;20117;-31
2022/06/29 00:07:11;;;;;;;3.67;2.45;;;15.30;99.90;;;;;;5033075;28;20548;-29
2022/06/29 00:09:37;;;;;;;2.83;2.50;;;15.30;99.90;;;;;;4999915;28;20076;-30
2022/06/29 00:12:03;;;;;;;4.28;2.50;;;15.30;99.90;;;;;;5013153;28;20404;-29
2022/06/29 00:14:29;;;;;;;3.53;2.28;;;15.30;99.90;;;;;;5012812;28;20057;-30
2022/06/29 00:16:55;;;;;;;5.78;2.90;;;15.30;99.90;;;;;;5012519;28;20034;-30
2022/06/29 00:19:20;;;;;;;3.75;2.67;;;15.20;99.90;;;;;;5011317;28;20069;-29
2022/06/29 00:21:46;;;;;;;3.92;2.30;;;15.20;99.90;;;;;;5011772;28;20095;-30
2022/06/29 00:24:12;;;;;;;2.67;2.22;;;15.20;99.90;;;;;;5011893;28;20555;-30
2022/06/29 00:26:38;;;;;;;5.22;2.85;;;15.20;99.90;;;;;;5011834;28;20198;-29
2022/06/29 00:29:03;;;;;;;3.75;2.80;;;15.20;99.90;;;;;;5011483;28;20470;-30
2022/06/29 00:31:29;;;;;;;3.58;2.70;;;15.10;99.90;;;;;;5012074;28;20050;-30
2022/06/29 00:33:55;;;;;;;3.60;2.65;;;15.10;99.90;;;;;;5012455;28;20121;-30
2022/06/29 00:36:20;;;;;;;5.40;2.92;;;15.10;99.90;;;;;;4995159;28;20034;-29
2022/06/29 00:38:46;;;;;;;2.75;2.55;;;15.10;99.90;;;;;;5012432;28;20096;-31
2022/06/29 00:41:12;;;;;;;3.17;2.72;;;15.00;99.90;;;;;;5012197;28;20282;-30
2022/06/29 00:43:41;;;;;;;3.70;3.30;;;15.00;99.90;;;;;;5012530;28;20496;-30
2022/06/29 00:46:07;;;;;;;2.70;2.50;;;15.00;99.90;;;;;;5012267;28;20396;-30
2022/06/29 00:48:35;;;;;;;5.07;2.75;;;14.90;99.90;;;;;;5012313;28;20117;-30
2022/06/29 00:51:03;;;;;;;3.00;2.70;;;14.90;99.90;;;;;;5012217;28;20034;-30
2022/06/29 00:53:37;;;;;;;2.83;2.63;;;14.90;99.90;;;;;;5011968;28;20042;-30
2022/06/29 00:56:04;;;;;;;2.58;2.38;;;14.90;99.90;;;;;;5012289;28;20520;-29
2022/06/29 00:58:31;;;;;;;3.03;2.83;;;14.80;99.90;;;;;;5012017;28;20343;-30
2022/06/29 01:01:02;;;;;;;3.33;2.50;;;14.80;99.90;;;;;;5011885;28;20116;-30
2022/06/29 01:03:28;;;;;;;3.08;2.78;;;14.80;99.90;;;;;;5012041;28;20126;-31
2022/06/29 01:05:54;;;;;;;4.50;3.17;;;14.80;99.90;;;;;;5011996;28;20500;-31
2022/06/29 01:08:20;;;;;;;2.92;2.53;;;14.70;99.90;;;;;;5032107;28;20120;-30
2022/06/29 01:10:46;;;;;;;3.15;2.90;;;14.70;99.90;;;;;;5031640;28;20188;-30
2022/06/29 01:13:12;;;;;;;4.15;2.95;;;14.70;99.90;;;;;;5031657;28;20112;-29
2022/06/29 01:15:38;;;;;;;6.20;3.30;;;14.70;99.90;;;;;;5031658;28;20089;-30
2022/06/29 01:18:04;;;;;;;4.85;3.00;;;14.70;99.90;;;;;;5030109;28;20041;-30
2022/06/29 01:20:30;;;;;;;5.93;3.50;;;14.60;99.90;;;;;;5031539;28;20406;-31
2022/06/29 01:22:56;;;;;;;3.83;2.80;;;14.70;99.90;;;;;;5031155;28;20496;-30
2022/06/29 01:25:21;;;;;;;3.83;3.20;;;14.60;99.90;;;;;;5031585;28;20045;-30
2022/06/29 01:27:47;;;;;;;3.83;3.20;;;14.60;99.90;;;;;;5031577;28;20041;-30
2022/06/29 01:30:13;;;;;;;3.30;3.00;;;14.60;99.90;;;;;;5030181;28;20365;-29
2022/06/29 01:32:39;;;;;;;3.60;3.20;;;14.60;99.90;;;;;;5016234;28;20108;-29
2022/06/29 01:35:12;;;;;;;3.20;3.00;;;14.50;99.90;;;;;;5020628;28;20049;-30
2022/06/29 01:37:39;;;;;;;;;;;14.50;99.90;;;;;;5016677;28;20104;-30
2022/06/29 01:40:06;;;;;;;4.53;3.45;;;14.50;99.90;;;;;;5011590;28;20335;-29
2022/06/29 01:42:32;;;;;;;5.03;3.42;;;14.40;99.90;;;;;;5011268;28;20042;-29
2022/06/29 01:44:57;;;;;;;6.78;3.70;;;14.40;99.90;;;;;;5027850;28;20099;-29
2022/06/29 01:47:23;;;;;;;4.80;3.30;;;14.40;99.90;;;;;;5019409;28;20034;-30
2022/06/29 01:49:49;;;;;;;4.53;3.33;;;14.40;99.90;;;;;;5022511;28;20502;-31
2022/06/29 01:52:14;;;;;;;5.60;3.83;;;14.30;99.90;;;;;;5031112;28;20049;-30
2022/06/29 01:54:40;;;;;;;4.10;3.80;;;14.30;99.90;;;;;;5031676;28;20045;-30
2022/06/29 01:57:06;;;;;;;6.40;4.32;;;14.30;99.90;;;;;;5019818;28;20393;-31
2022/06/29 01:59:32;;;;;;;4.53;4.10;;;14.30;99.90;;;;;;5011399;28;20042;-30
2022/06/29 02:01:57;;;;;;;4.32;3.80;;;14.30;99.90;;;;;;5018343;28;20045;-29
2022/06/29 02:04:23;;;;;;;5.45;4.00;;;14.30;99.90;;;;;;5031366;28;20077;-30
2022/06/29 02:06:50;;;;;;;5.20;3.85;;;14.30;99.90;;;;;;5030929;28;20038;-29
2022/06/29 02:09:16;;;;;;;5.05;4.30;;;14.30;99.90;;;;;;5022734;28;20076;-30
2022/06/29 02:11:41;;;;;;;4.47;4.05;;;14.20;99.90;;;;;;5031030;28;20396;-31
2022/06/29 02:14:08;;;;;;;5.25;4.80;;;14.20;99.90;;;;;;5031039;28;20044;-30
2022/06/29 02:16:34;;;;;;;4.43;4.03;;;14.20;99.90;;;;;;5029570;28;20048;-29
2022/06/29 02:18:59;;;;;;;4.90;4.50;;;14.20;99.90;;;;;;5029627;28;20045;-29
2022/06/29 02:21:25;;;;;;;7.10;4.18;;;14.20;99.90;;;;;;5031157;28;20041;-30
2022/06/29 02:23:51;;;;;;;4.68;4.28;;;14.20;99.90;;;;;;5014203;28;20080;-30
2022/06/29 02:26:17;;;;;;;7.03;4.68;;;14.20;99.90;;;;;;5023692;28;20052;-30
2022/06/29 02:28:42;;;;;;;5.40;4.47;;;14.20;99.90;;;;;;5031227;28;20030;-30
2022/06/29 02:36:37;;;;;;;5.18;4.38;;;14.20;99.90;;;;;;5031209;28;20080;-29
2022/06/29 02:39:03;;;;;;;5.60;4.75;;;14.20;99.90;;;;;;5029901;28;20507;-29
2022/06/29 02:41:29;;;;;;;5.97;5.07;;;14.20;99.90;;;;;;5030206;28;20048;-29
2022/06/29 02:43:54;;;;;;;5.22;4.72;;;14.20;99.90;;;;;;5034007;28;20048;-29
2022/06/29 02:46:20;;;;;;;6.88;4.60;;;14.20;99.90;;;;;;5025617;28;20111;-28
2022/06/29 02:48:46;;;;;;;5.32;4.68;;;14.20;99.90;;;;;;5013247;28;20409;-29
2022/06/29 02:51:12;;;;;;;4.80;4.40;;;14.20;99.90;;;;;;5014049;28;20065;-29
2022/06/29 02:53:38;;;;;;;5.90;4.63;;;14.20;99.90;;;;;;5012946;28;20471;-29
2022/06/29 02:56:04;;;;;;;6.40;4.60;;;14.10;99.90;;;;;;5014857;28;20049;-28
2022/06/29 02:58:29;;;;;;;5.30;4.90;;;14.10;99.90;;;;;;5014975;28;20045;-30
2022/06/29 03:00:55;;;;;;;5.55;5.15;;;14.10;99.90;;;;;;5015077;28;20401;-29
2022/06/29 03:03:21;;;;;;;6.07;5.35;;;14.10;99.90;;;;;;5026224;28;20045;-29
2022/06/29 03:05:47;;;;;;;5.22;4.82;;;14.10;99.90;;;;;;5034400;28;20052;-31
2022/06/29 03:08:12;;;;;;;5.80;4.82;;;14.10;99.90;;;;;;5034707;28;20496;-29
2022/06/29 03:10:38;;;;;;;5.53;5.05;;;14.00;99.90;;;;;;5034773;28;20043;-29
2022/06/29 03:13:04;;;;;;;5.32;4.82;;;14.00;99.90;;;;;;5034336;28;20038;-28
2022/06/29 03:15:30;;;;;;;5.35;4.85;;;14.00;99.90;;;;;;5027882;28;20052;-32
2022/06/29 03:17:56;;;;;;;5.60;5.10;;;14.00;99.90;;;;;;5024642;28;20049;-32
2022/06/29 03:20:22;;;;;;;5.50;5.00;;;14.00;99.90;;;;;;5024956;28;20033;-32
2022/06/29 03:22:48;;;;;;;5.70;5.07;;;13.90;99.90;;;;;;5028748;28;20045;-31
2022/06/29 03:25:15;;;;;;;6.00;5.47;;;13.90;99.90;;;;;;5025704;28;20117;-31
2022/06/29 03:27:42;;;;;;;5.50;5.03;;;13.90;99.90;;;;;;5032972;28;20504;-31
2022/06/29 03:30:08;;;;;;;5.20;4.80;;;13.80;99.90;;;;;;5029028;28;20092;-33
2022/06/29 03:32:34;;;;;;;4.68;4.28;;;13.80;99.90;;;;;;5032567;28;20037;-32
2022/06/29 03:35:00;;;;;;;6.00;5.40;;;13.90;99.90;;;;;;5032323;28;20162;-33
2022/06/29 03:37:25;;;;;;;5.22;4.82;;;13.80;99.90;;;;;;5032330;28;20029;-30
2022/06/29 03:39:51;;;;;;;5.57;5.07;;;13.80;99.90;;;;;;5018835;28;20147;-32
2022/06/29 03:42:17;;;;;;;6.47;5.38;;;13.80;99.90;;;;;;5030954;28;20065;-32
2022/06/29 03:44:43;;;;;;;7.03;5.43;;;13.80;99.90;;;;;;5019205;28;20033;-32
2022/06/29 03:47:09;;;;;;;6.15;5.70;;;13.80;99.90;;;;;;5020668;28;20041;-33
2022/06/29 03:49:35;;;;;;;6.40;5.85;;;13.80;99.90;;;;;;5026164;28;20405;-30
2022/06/29 03:52:02;;;;;;;6.50;5.88;;;13.80;99.90;;;;;;5046825;28;20037;-32
2022/06/29 03:54:28;;;;;;;6.57;5.97;;;13.80;99.90;;;;;;5026541;28;20056;-31
2022/06/29 03:56:54;;;;;;;6.65;6.18;;;13.80;99.90;;;;;;5019379;28;20442;-31
2022/06/29 03:59:19;;;;;;;6.65;6.05;;;13.80;99.90;;;;;;5029058;28;20029;-32
2022/06/29 04:01:46;;;;;;;5.93;5.38;;;13.80;99.90;;;;;;5024464;28;20037;-32
2022/06/29 04:04:12;;;;;;;7.03;5.53;;;13.80;99.90;;;;;;5019934;28;20198;-32
2022/06/29 04:06:39;;;;;;;6.22;5.72;;;13.80;99.90;;;;;;5022261;28;20091;-32
2022/06/29 04:09:04;;;;;;;6.80;6.20;;;13.90;99.90;;;;;;5029277;28;20240;-32
2022/06/29 04:11:48;;;;;;;7.10;6.47;;;13.90;99.90;;;;;;5021751;28;20327;-33
2022/06/29 04:14:14;;;;;;;;;;;13.90;99.90;;;;;;5028171;28;20030;-31
2022/06/29 04:16:40;;;;;;;6.75;6.22;;;13.90;99.90;;;;;;5020428;28;19925;-30
2022/06/29 04:19:06;;;;;;;6.95;6.45;;;13.90;99.90;;;;;;5031709;28;20124;-31
2022/06/29 04:21:32;;;;;;;7.85;7.25;;;13.90;99.90;;;;;;5021303;28;20045;-33
2022/06/29 04:23:58;;;;;;;6.80;6.18;;;13.90;99.90;;;;;;5021034;28;20499;-33
2022/06/29 04:26:23;;;;;;;7.40;6.70;;;13.90;99.90;;;;;;5021283;28;20034;-32
2022/06/29 04:28:49;;;;;;;7.53;6.93;;;14.00;99.90;;;;;;5031166;28;20033;-33
2022/06/29 04:31:15;;;;;;;7.20;6.55;;;14.00;99.90;;;;;;5021023;28;20037;-34
2022/06/29 04:33:40;;;;;;;7.03;6.32;;;14.00;99.90;;;;;;5028581;28;20453;-33
2022/06/29 04:36:06;;;;;;;7.63;7.00;;;14.10;99.90;;;;;;5022893;28;20492;-29
2022/06/29 04:38:32;;;;;;;7.78;7.05;;;14.10;99.90;;;;;;5032552;28;20038;-30
2022/06/29 04:40:59;;;;;;;8.30;7.50;;;14.20;99.90;;;;;;5032486;28;20045;-29
2022/06/29 04:43:27;;;;;;;8.85;7.50;;;14.20;99.90;;;;;;5032234;28;20115;-29
2022/06/29 04:48:38;;;;;;;7.60;7.00;;;14.30;99.90;;;;;;5032283;28;20516;-30
2022/06/29 04:51:04;;;;;;;8.70;7.80;;;14.40;99.90;;;;;;5031359;28;20073;-29
2022/06/29 04:53:30;;;;;;;7.32;6.65;;;14.50;99.90;;;;;;5032311;28;20034;-29
2022/06/29 04:55:55;;;;;;;6.95;6.35;;;14.50;99.90;;;;;;5031798;28;20064;-29
2022/06/29 04:58:21;;;;;;;7.95;7.35;;;14.60;99.90;;;;;;5014570;28;20045;-30
2022/06/29 05:00:47;;;;;;;7.68;7.07;;;14.70;99.90;;;;;;5031939;28;20120;-29
2022/06/29 05:03:13;;;;;;;7.45;6.85;;;14.70;99.90;;;;;;5031532;28;20409;-30
2022/06/29 05:05:38;;;;;;;7.75;7.07;;;14.80;99.90;;;;;;5030088;28;20096;-30
2022/06/29 05:08:05;;;;;;;7.97;7.38;;;14.90;99.90;;;;;;5031967;28;20045;-29
2022/06/29 05:10:31;;;;;;;7.97;7.28;;;15.00;99.90;;;;;;5031580;28;20112;-30
2022/06/29 05:12:57;;;;;;;7.43;6.68;;;15.10;99.90;;;;;;5031501;28;20114;-29
2022/06/29 05:15:22;;;;;;;7.70;7.10;;;15.20;99.90;;;;;;5031308;28;20045;-30
2022/06/29 05:17:48;;;;;;;7.65;6.95;;;15.20;99.90;;;;;;5014126;28;20052;-29
2022/06/29 05:20:14;;;;;;;7.75;7.05;;;15.30;99.90;;;;;;5031600;28;20049;-30
2022/06/29 05:22:40;;;;;;;7.38;6.60;;;15.40;99.90;;;;;;5031808;28;20038;-30
2022/06/29 05:25:07;;;;;;;7.30;6.60;;;15.50;99.90;;;;;;5030263;28;20030;-30
2022/06/29 05:27:33;;;;;;;7.43;6.80;;;15.60;99.90;;;;;;5028681;28;20121;-30
2022/06/29 05:29:59;;;;;;;7.30;6.70;;;15.60;99.90;;;;;;5026900;28;20440;-29
2022/06/29 05:32:25;;;;;;;7.63;7.03;;;15.70;99.90;;;;;;5027287;28;20033;-29
2022/06/29 05:34:50;;;;;;;7.53;7.03;;;15.80;99.90;;;;;;5030312;28;20048;-30
2022/06/29 05:37:16;;;;;;;8.40;6.93;;;15.90;99.90;;;;;;5028665;28;20485;-29
2022/06/29 05:39:44;;;;;;;7.18;6.65;;;16.10;99.90;;;;;;5030719;28;20068;-30
2022/06/29 05:42:12;;;;;;;8.10;7.40;;;16.20;99.90;;;;;;5030625;28;20091;-30
2022/06/29 05:44:38;;;;;;;7.88;6.70;;;16.30;99.90;;;;;;5031752;28;20117;-29
2022/06/29 05:47:04;;;;;;;8.13;7.43;;;16.40;99.90;;;;;;5029895;28;20527;-30
2022/06/29 05:49:30;;;;;;;7.53;6.63;;;16.50;99.90;;;;;;5028511;28;20033;-30
2022/06/29 05:51:56;;;;;;;8.02;7.38;;;16.60;99.90;;;;;;5028446;28;20527;-29
2022/06/29 05:54:22;;;;;;;8.18;7.47;;;16.70;99.90;;;;;;5027124;28;20128;-30
2022/06/29 05:56:47;;;;;;;8.02;7.35;;;16.90;99.90;;;;;;5028715;28;20525;-29
2022/06/29 05:59:13;;;;;;;8.05;7.25;;;17.00;99.90;;;;;;5029073;28;20041;-31
2022/06/29 06:01:39;;;;;;;8.07;7.28;;;17.10;99.90;;;;;;5028706;28;20096;-29
2022/06/29 06:04:04;;;;;;;7.50;6.82;;;17.20;99.90;;;;;;5029961;28;20107;-30
2022/06/29 06:06:30;;;;;;;7.88;7.07;;;17.30;99.90;;;;;;5031604;28;20106;-29
2022/06/29 06:08:56;;;;;;;7.00;6.32;;;17.40;99.90;;;;;;5032391;28;20504;-29
2022/06/29 06:11:22;;;;;;;7.18;6.55;;;17.50;99.90;;;;;;5031785;28;20041;-31
2022/06/29 06:13:47;;;;;;;6.80;6.18;;;17.60;99.90;;;;;;5030592;28;20041;-29
2022/06/29 06:16:13;;;;;;;7.13;6.53;;;17.70;99.90;;;;;;5031892;28;20416;-30
2022/06/29 06:18:39;;;;;;;7.18;6.55;;;17.80;99.90;;;;;;5035259;28;20500;-32
2022/06/29 06:21:05;;;;;;;7.32;6.35;;;17.90;99.90;;;;;;5030967;28;20045;-29
2022/06/29 06:23:31;;;;;;;7.15;6.45;;;18.00;99.90;;;;;;5035224;28;20045;-30
2022/06/29 06:25:57;;;;;;;6.78;6.18;;;18.20;99.90;;;;;;5034518;28;20090;-30
2022/06/29 06:28:22;;;;;;;6.93;6.28;;;18.30;99.90;;;;;;5036146;28;20104;-29
2022/06/29 06:30:48;;;;;;;6.47;5.97;;;18.40;99.90;;;;;;5027079;28;20034;-33
2022/06/29 06:33:14;;;;;;;8.07;5.35;;;18.50;99.90;;;;;;5027645;28;20033;-32
2022/06/29 06:35:40;;;;;;;5.93;5.45;;;18.70;99.90;;;;;;5026751;28;20073;-33
2022/06/29 06:38:05;;;;;;;6.85;5.75;;;18.80;99.90;;;;;;5028335;28;20047;-32
2022/06/29 06:43:16;;;;;;;5.90;5.47;;;19.00;99.90;;;;;;5024907;28;20077;-32
2022/06/29 06:45:42;;;;;;;5.18;4.78;;;19.10;99.90;;;;;;5034176;28;20468;-32
2022/06/29 06:48:08;;;;;;;5.75;5.20;;;19.20;99.90;;;;;;5008612;28;20493;-35
2022/06/29 06:50:34;;;;;;;5.00;4.60;;;19.30;99.90;;;;;;5031280;28;20481;-31
2022/06/29 06:53:02;;;;;;;4.80;4.40;;;19.40;99.90;;;;;;5017830;28;20113;-32
2022/06/29 06:55:28;;;;;;;5.65;4.60;;;19.60;99.90;;;;;;5028512;28;20077;-33
2022/06/29 06:57:54;;;;;;;4.60;4.20;;;19.70;99.90;;;;;;5032718;28;20416;-33
2022/06/29 07:00:19;;;;;;;4.78;4.38;;;19.80;99.90;;;;;;5026899;28;20037;-33
2022/06/29 07:02:45;;;;;;;4.38;3.97;;;19.90;99.90;;;;;;5029736;28;20476;-31
2022/06/29 07:05:11;;;;;;;5.20;4.00;;;20.10;99.90;;;;;;5031442;28;20030;-31
2022/06/29 07:07:36;;;;;;;4.35;3.83;;;20.30;99.90;;;;;;5027209;28;20056;-32
2022/06/29 07:10:03;;;;;;;3.80;3.50;;;20.50;99.90;;;;;;5027606;28;20493;-34
2022/06/29 07:12:29;;;;;;;4.35;3.25;;;20.60;99.90;;;;;;5016721;28;20061;-33
2022/06/29 07:14:55;;;;;;;4.00;2.97;;;20.70;99.90;;;;;;5024125;28;20037;-32
2022/06/29 07:17:21;;;;;;;5.60;3.20;;;20.80;99.80;;;;;;5033553;28;20477;-32
2022/06/29 07:19:46;;;;;;;4.43;3.40;;;20.80;98.40;;;;;;5032153;28;20142;-33
2022/06/29 07:22:12;;;;;;;3.20;2.90;;;20.80;96.50;;;;;;5027840;28;20563;-32
2022/06/29 07:24:38;;;;;;;3.72;3.40;;;20.80;96.70;;;;;;5027157;28;20041;-32
2022/06/29 07:27:04;;;;;;;3.75;3.45;;;20.70;95.50;;;;;;5022577;28;20104;-32
2022/06/29 07:29:29;;;;;;;3.10;2.90;;;20.80;95.60;;;;;;5023994;28;20029;-32
2022/06/29 07:31:55;;;;;;;5.30;3.28;;;21.00;96.10;;;;;;5028866;28;20026;-32
2022/06/29 07:34:21;;;;;;;4.35;3.08;;;21.10;95.90;;;;;;5025923;28;20041;-32
2022/06/29 07:36:46;;;;;;;3.53;2.85;;;21.40;95.60;;;;;;5024555;28;20034;-32
2022/06/29 07:39:12;;;;;;;3.58;2.80;;;21.60;94.80;;;;;;5022644;28;20069;-31
2022/06/29 07:41:38;;;;;;;3.63;2.80;;;21.80;94.00;;;;;;5029238;28;20507;-33
2022/06/29 07:44:04;;;;;;;3.10;2.80;;;21.90;94.50;;;;;;5028964;28;20037;-34
2022/06/29 07:46:30;;;;;;;3.42;3.10;;;22.10;94.30;;;;;;5025115;28;20083;-33
2022/06/29 07:48:56;;;;;;;5.40;2.88;;;22.20;94.40;;;;;;5033504;28;20038;-30
2022/06/29 07:51:22;;;;;;;3.20;2.70;;;22.30;92.30;;;;;;5033363;28;20076;-30
2022/06/29 07:53:48;;;;;;;4.57;3.03;;;22.40;93.70;;;;;;5033504;28;20045;-29
2022/06/29 07:56:13;;;;;;;2.47;2.28;;;22.70;92.70;;;;;;5026703;28;20035;-32
2022/06/29 07:58:39;;;;;;;3.63;3.00;;;22.90;93.70;;;;;;5032975;28;20038;-29
2022/06/29 08:01:05;;;;;;;3.30;2.45;;;23.00;90.40;;;;;;5024767;28;20100;-29
2022/06/29 08:03:31;;;;;;;3.65;2.40;;;23.10;91.50;;;;;;5033377;28;20041;-29
2022/06/29 08:05:58;;;;;;;2.75;2.42;;;23.30;92.60;;;;;;5033173;28;20034;-30
2022/06/29 08:08:24;;;;;;;4.28;2.80;;;23.50;91.60;;;;;;5028849;28;20037;-30
2022/06/29 08:10:50;;;;;;;3.00;2.80;;;23.60;88.90;;;;;;5019275;28;20084;-30
2022/06/29 08:13:16;;;;;;;2.85;2.60;;;23.80;83.80;;;;;;5033032;28;20033;-30
2022/06/29 08:15:45;;;;;;;2.92;2.72;;;24.00;83.70;;;;;;5033167;28;20039;-30
2022/06/29 08:18:15;;;;;;;3.38;2.60;;;24.00;77.20;;;;;;5033192;28;20049;-29
2022/06/29 08:20:42;;;;;;;2.55;2.35;;;24.00;74.70;;;;;;5032741;28;20044;-29
2022/06/29 08:23:09;;;;;;;3.05;2.40;;;24.10;75.60;;;;;;5032779;28;20080;-30
2022/06/29 08:25:35;;;;;;;2.30;2.10;;;24.20;74.40;;;;;;5032695;28;20034;-31
2022/06/29 08:28:01;;;;;;;3.20;2.50;;;24.50;78.80;;;;;;5033519;28;20049;-30
2022/06/29 08:30:28;;;;;;;3.20;2.53;;;24.70;71.70;;;;;;5031598;28;20396;-30
2022/06/29 08:32:54;;;;;;;2.38;2.15;;;24.80;70.00;;;;;;5032862;28;20477;-31
2022/06/29 08:35:19;;;;;;;3.50;2.20;;;24.90;66.00;;;;;;5032953;28;20090;-30
2022/06/29 08:37:47;;;;;;;4.55;2.60;;;24.90;64.30;;;;;;5024382;28;20143;-36
2022/06/29 08:40:15;;;;;;;2.25;2.00;;;25.00;63.90;;;;;;5014722;28;20502;-33
2022/06/29 08:42:41;;;;;;;3.67;1.90;;;25.30;66.30;;;;;;5023930;28;20038;-32
2022/06/29 08:45:09;;;;;;;2.42;2.17;;;25.70;67.50;;;;;;5028191;28;20037;-33
2022/06/29 08:47:35;;;;;;;3.33;2.28;;;26.10;62.80;;;;;;5025393;28;20044;-33
2022/06/29 08:50:05;;;;;;;2.15;1.90;;;26.20;59.40;;;;;;5031798;28;20037;-34
2022/06/29 08:52:36;;;;;;;2.38;2.17;;;26.20;59.70;;;;;;5028747;28;20432;-34
2022/06/29 08:55:04;;;;;;;3.20;2.15;;;26.20;60.80;;;;;;5015089;28;20037;-32
2022/06/29 08:57:31;;;;;;;3.75;2.17;;;26.40;59.20;;;;;;5030572;28;20101;-33
2022/06/29 08:59:57;;;;;;;6.75;2.10;;;26.30;57.70;;;;;;5029702;28;20033;-37
2022/06/29 09:02:22;;;;;;;3.63;2.13;;;26.40;58.00;;;;;;5023036;28;20081;-34
2022/06/29 09:04:48;;;;;;;2.30;2.08;;;26.30;56.20;;;;;;5029979;28;20041;-33
2022/06/29 09:07:14;;;;;;;3.78;2.15;;;26.10;57.00;;;;;;5026715;28;20443;-33
2022/06/29 09:09:59;;;;;;;3.67;2.05;;;25.80;55.90;;;;;;5030519;28;20034;-33
2022/06/29 09:12:26;;;;;;;2.28;2.08;;;25.60;55.80;;;;;;5028544;28;20065;-31
2022/06/29 09:14:52;;;;;;;2.50;2.17;;;25.50;56.90;;;;;;5030744;28;20091;-33
2022/06/29 09:17:18;;;;;;;3.28;2.60;;;25.50;58.60;;;;;;5016982;28;20041;-30
2022/06/29 09:19:46;;;;;;;3.05;2.47;;;25.60;59.10;;;;;;5016419;28;20113;-30
2022/06/29 09:22:13;;;;;;;2.65;2.45;;;25.50;58.00;;;;;;4994922;28;20382;-30
2022/06/29 09:24:40;;;;;;;5.10;2.42;;;25.70;58.60;;;;;;5030741;28;20057;-29
2022/06/29 09:27:08;;;;;;;3.85;2.50;;;26.20;58.70;;;;;;5031879;28;20112;-30
2022/06/29 09:29:35;;;;;;;2.58;2.35;;;26.50;57.50;;;;;;5030333;28;20041;-31
2022/06/29 09:32:04;;;;;;;2.17;2.08;;;26.90;58.80;;;;;;5030792;28;20538;-30
2022/06/29 09:34:31;;;;;;;3.08;2.22;;;27.10;59.30;;;;;;5032274;28;20045;-31
2022/06/29 09:36:58;;;;;;;2.40;2.20;;;27.20;57.90;;;;;;5032685;28;20052;-30
2022/06/29 09:39:37;;;;;;;2.75;2.50;;;27.10;58.10;;;;;;5030980;28;20718;-30
2022/06/29 09:42:08;;;;;;;3.00;2.50;;;27.40;60.60;;;;;;5031823;28;20052;-30
2022/06/29 09:44:34;;;;;;;3.00;2.42;;;27.90;57.80;;;;;;5020600;28;20030;-31
2022/06/29 09:47:06;;;;;;;2.70;2.40;;;28.20;58.00;;;;;;5019591;28;20042;-30
2022/06/29 09:49:33;;;;;;;3.70;2.40;;;28.40;57.20;;;;;;5031280;28;20069;-30
2022/06/29 09:52:00;;;;;;;2.92;2.50;;;28.40;54.50;;;;;;5029019;28;20045;-35
2022/06/29 09:54:45;;;;;;;2.80;2.47;;;28.10;53.30;;;;;;5029533;28;20507;-30
2022/06/29 09:57:12;;;;;;;2.70;2.28;;;27.90;56.20;;;;;;5022269;28;20034;-30
2022/06/29 10:02:37;;;;;;;2.50;2.30;;;27.70;55.30;;;;;;5030437;28;20049;-30
2022/06/29 10:05:13;;;;;;;3.85;2.42;;;27.60;54.60;;;;;;5030675;28;20512;-31
2022/06/29 10:07:45;;;;;;;2.35;2.15;;;27.30;54.30;;;;;;5023644;28;20040;-31
2022/06/29 10:10:13;;;;;;;2.63;2.23;;;27.30;54.60;;;;;;5016699;28;20435;-31
2022/06/29 10:15:57;;;;;;;2.70;2.50;;;27.60;58.40;;;;;;5009888;28;20516;-31
2022/06/29 10:18:37;;;;;;;3.30;2.40;;;27.70;59.60;;;;;;5017094;28;20060;-30
2022/06/29 10:21:17;;;;;;;3.90;3.25;;;28.30;57.30;;;;;;5020322;28;20045;-30
2022/06/29 10:23:46;;;;;;;4.60;3.40;;;28.60;56.30;;;;;;5030573;28;20048;-30
2022/06/29 10:26:28;;;;;;;3.33;3.13;;;28.80;55.90;;;;;;5031065;28;20060;-31
2022/06/29 10:29:19;;;;;;;3.20;2.90;;;28.80;53.20;;;;;;5012391;28;20306;-30
2022/06/29 10:31:51;;;;;;;3.10;2.90;;;28.70;51.40;;;;;;5027697;28;20033;-31
2022/06/29 10:34:37;;;;;;;3.58;3.22;;;28.70;53.60;;;;;;5030985;28;20124;-30
2022/06/29 10:37:03;;;;;;;3.90;2.97;;;29.10;51.50;;;;;;5024609;28;20058;-31
2022/06/29 10:39:49;;;;;;;3.95;3.25;;;29.10;52.30;;;;;;5011266;28;20129;-31
2022/06/29 10:45:09;;;;;;;4.07;3.05;;;29.00;50.90;;;;;;5022676;28;20089;-31
2022/06/29 10:47:35;;;;;;;3.47;3.17;;;28.80;52.20;;;;;;5024308;28;20495;-31
2022/06/29 10:50:20;;;;;;;3.58;3.17;;;28.50;53.10;;;;;;5025684;28;20069;-31
2022/06/29 10:52:47;;;;;;;3.55;3.25;;;28.20;52.90;;;;;;5022495;28;20045;-30
2022/06/29 10:55:15;;;;;;;4.93;3.60;;;28.00;52.50;;;;;;5031000;28;20052;-31
2022/06/29 10:57:44;;;;;;;3.72;3.25;;;27.80;52.40;;;;;;5030513;28;20103;-31
2022/06/29 11:00:40;;;;;;;3.40;3.20;;;27.70;52.20;;;;;;5030351;28;20033;-31
2022/06/29 11:03:26;;;;;;;3.47;3.17;;;27.90;54.60;;;;;;5015390;28;20053;-32
2022/06/29 11:16:57;;;;;;;4.03;3.13;;;28.70;51.30;;;;;;5021007;28;20471;-31
2022/06/29 11:19:40;;;;;;;4.72;3.50;;;28.70;51.30;;;;;;5027428;28;20044;-33
2022/06/29 11:22:11;;;;;;;3.90;3.57;;;28.80;50.70;;;;;;5032689;28;20041;-31
2022/06/29 11:24:58;;;;;;;4.10;3.78;;;28.80;51.60;;;;;;5023779;28;20065;-32
2022/06/29 11:27:36;;;;;;;4.55;3.55;;;29.00;53.70;;;;;;5021438;28;20045;-30
2022/06/29 11:30:08;;;;;;;4.70;3.20;;;29.10;51.50;;;;;;5033274;28;20433;-30
2022/06/29 11:32:39;;;;;;;3.85;3.35;;;29.30;53.10;;;;;;5030170;28;20447;-30
2022/06/29 11:35:07;;;;;;;4.05;3.60;;;29.40;52.30;;;;;;5025144;28;20088;-31
2022/06/29 11:37:33;;;;;;;6.30;3.42;;;29.70;50.50;;;;;;5021251;28;20033;-31
2022/06/29 11:39:59;;;;;;;5.60;3.22;;;29.90;50.10;;;;;;5021401;28;20042;-31
2022/06/29 11:45:18;;;;;;;3.90;3.60;;;30.10;49.40;;;;;;5029512;28;20046;-32
2022/06/29 11:47:52;;;;;;;4.22;3.72;;;30.00;49.40;;;;;;5029083;28;20037;-31
2022/06/29 11:50:18;;;;;;;4.45;3.17;;;29.80;47.90;;;;;;5028659;28;20036;-31
2022/06/29 11:52:51;;;;;;;4.05;3.60;;;29.60;49.40;;;;;;5032929;28;20029;-32
2022/06/29 11:55:46;;;;;;;3.83;3.53;;;29.30;48.80;;;;;;5027364;28;20469;-31
2022/06/29 11:58:14;;;;;;;5.10;3.40;;;29.30;49.20;;;;;;5024641;28;20095;-30
2022/06/29 12:00:40;;;;;;;3.92;3.63;;;29.40;50.50;;;;;;5018990;28;20113;-31
2022/06/29 12:03:07;;;;;;;3.80;3.50;;;29.40;50.80;;;;;;5030464;28;20124;-31
2022/06/29 12:05:33;;;;;;;3.70;3.40;;;29.00;51.10;;;;;;5028564;28;20045;-34
2022/06/29 12:07:58;;;;;;;4.50;4.10;;;29.10;51.20;;;;;;5030799;28;20049;-31
2022/06/29 12:10:24;;;;;;;3.97;3.58;;;28.90;50.30;;;;;;5024399;28;20033;-32
2022/06/29 12:12:50;;;;;;;5.63;4.10;;;29.00;50.90;;;;;;5030368;28;20448;-30
2022/06/29 12:15:17;;;;;;;4.43;4.13;;;29.20;50.60;;;;;;5018590;28;20465;-34
2022/06/29 12:17:44;;;;;;;5.13;3.85;;;29.00;49.90;;;;;;5030020;28;20048;-36
2022/06/29 12:20:11;;;;;;;4.00;3.65;;;28.90;50.20;;;;;;5024675;28;20044;-34
2022/06/29 12:22:37;;;;;;;5.25;4.13;;;29.20;50.80;;;;;;5025118;28;20041;-34
2022/06/29 12:25:03;;;;;;;4.70;4.13;;;29.80;50.70;;;;;;5020131;28;20108;-35
2022/06/29 12:27:28;;;;;;;6.38;3.80;;;29.70;49.60;;;;;;5021652;28;20041;-34
2022/06/29 12:29:55;;;;;;;4.32;4.03;;;29.40;50.80;;;;;;5029028;28;20041;-34
2022/06/29 12:32:21;;;;;;;4.65;3.85;;;29.40;51.10;;;;;;5015019;28;20033;-34
2022/06/29 12:34:47;;;;;;;4.60;3.88;;;29.20;50.20;;;;;;5023301;28;20110;-34
2022/06/29 12:37:13;;;;;;;4.13;3.72;;;29.70;52.60;;;;;;5025897;28;20120;-35
2022/06/29 12:39:38;;;;;;;6.20;3.55;;;30.40;51.50;;;;;;5019006;28;20042;-34
2022/06/29 12:42:04;;;;;;;4.85;3.63;;;30.70;50.70;;;;;;5028116;28;20073;-36
2022/06/29 12:44:30;;;;;;;4.97;3.83;;;30.90;49.90;;;;;;5024956;28;20686;-33
2022/06/29 12:46:56;;;;;;;3.97;3.58;;;30.90;48.40;;;;;;5025612;28;20124;-33
2022/06/29 12:49:22;;;;;;;3.70;3.22;;;30.90;48.30;;;;;;5015631;28;20038;-34
2022/06/29 12:51:48;;;;;;;4.57;4.10;;;30.80;48.60;;;;;;5023661;28;20493;-33
2022/06/29 12:54:14;;;;;;;4.25;3.72;;;30.70;48.00;;;;;;5030291;28;20123;-33
2022/06/29 12:56:40;;;;;;;3.65;3.35;;;30.60;48.40;;;;;;5026242;28;20447;-33
2022/06/29 12:59:06;;;;;;;4.88;3.60;;;30.90;48.50;;;;;;5030416;28;20053;-35
2022/06/29 13:01:31;;;;;;;4.57;3.65;;;31.00;47.80;;;;;;5025315;28;20520;-37
2022/06/29 13:03:57;;;;;;;4.63;3.60;;;31.40;48.20;;;;;;5021594;28;20048;-36
2022/06/29 13:06:23;;;;;;;3.63;3.33;;;31.90;48.00;;;;;;5015963;28;20030;-35
2022/06/29 13:08:49;;;;;;;4.45;4.15;;;32.50;47.10;;;;;;4997445;28;20038;-35
2022/06/29 13:11:14;;;;;;;6.10;3.65;;;32.50;45.20;;;;;;5020568;28;20099;-34
2022/06/29 13:13:40;;;;;;;5.13;3.75;;;32.10;44.80;;;;;;5009918;28;20113;-34
2022/06/29 13:16:07;;;;;;;4.30;3.90;;;32.10;45.80;;;;;;5014938;28;20375;-34
2022/06/29 13:18:34;;;;;;;4.63;4.00;;;32.00;45.00;;;;;;5015831;28;20103;-34
2022/06/29 13:21:00;;;;;;;5.13;3.97;;;31.90;43.90;;;;;;5005710;28;20128;-34
2022/06/29 13:23:26;;;;;;;6.07;4.05;;;31.70;44.80;;;;;;5012604;28;20462;-34